sensor_id;sensor_type;location;lat;lon;timestamp;pressure;altitude;pressure_sealevel;temperature;humidity
48774;BME280;34576;0.000;0.000;2023-03-14T00:02:26;95143.03;;;17.84;62.40
48774;BME280;34576;0.000;0.000;2023-03-14T00:09:27;95176.97;;;17.87;62.50
48774;BME280;34576;0.000;0.000;2023-03-14T00:16:29;95196.84;;;17.89;62.59
48774;BME280;34576;0.000;0.000;2023-03-14T00:23:30;95235.72;;;17.90;62.86
48774;BME280;34576;0.000;0.000;2023-03-14T00:30:31;95238.81;;;17.92;63.63
48774;BME280;34576;0.000;0.000;2023-03-14T00:37:31;95208.03;;;17.91;63.19
48774;BME280;34576;0.000;0.000;2023-03-14T00:44:31;95209.56;;;17.92;63.35
48774;BME280;34576;0.000;0.000;2023-03-14T00:51:32;95193.59;;;17.92;63.66
48774;BME280;34576;0.000;0.000;2023-03-14T00:58:32;95189.09;;;17.93;63.00
48774;BME280;34576;0.000;0.000;2023-03-14T01:05:32;95158.72;;;17.94;63.32
48774;BME280;34576;0.000;0.000;2023-03-14T01:12:33;95152.16;;;17.91;63.50
48774;BME280;34576;0.000;0.000;2023-03-14T01:19:33;95163.56;;;17.92;63.44
48774;BME280;34576;0.000;0.000;2023-03-14T01:26:34;95191.75;;;17.93;63.40
48774;BME280;34576;0.000;0.000;2023-03-14T01:33:35;95200.50;;;17.93;63.29
48774;BME280;34576;0.000;0.000;2023-03-14T01:40:45;95197.06;;;17.93;63.45
48774;BME280;34576;0.000;0.000;2023-03-14T01:47:45;95172.31;;;17.92;63.55
48774;BME280;34576;0.000;0.000;2023-03-14T01:54:46;95198.16;;;17.92;63.55
48774;BME280;34576;0.000;0.000;2023-03-14T02:01:48;95178.75;;;17.91;63.55
48774;BME280;34576;0.000;0.000;2023-03-14T02:09:09;95157.47;;;17.91;63.30
48774;BME280;34576;0.000;0.000;2023-03-14T02:16:09;95152.16;;;17.91;63.83
48774;BME280;34576;0.000;0.000;2023-03-14T02:23:28;95143.06;;;17.92;63.63
48774;BME280;34576;0.000;0.000;2023-03-14T02:30:32;95123.66;;;17.92;63.77
48774;BME280;34576;0.000;0.000;2023-03-14T02:37:53;95095.78;;;17.89;63.61
48774;BME280;34576;0.000;0.000;2023-03-14T02:52:06;95066.22;;;17.91;63.74
48774;BME280;34576;0.000;0.000;2023-03-14T02:59:07;95061.50;;;17.88;63.68
48774;BME280;34576;0.000;0.000;2023-03-14T03:06:27;95051.66;;;17.88;63.91
48774;BME280;34576;0.000;0.000;2023-03-14T03:13:27;95049.50;;;17.90;63.55
48774;BME280;34576;0.000;0.000;2023-03-14T03:20:30;95029.16;;;17.94;63.88
48774;BME280;34576;0.000;0.000;2023-03-14T03:27:31;95025.38;;;17.96;63.79
48774;BME280;34576;0.000;0.000;2023-03-14T03:34:32;95014.75;;;17.96;64.14
48774;BME280;34576;0.000;0.000;2023-03-14T03:41:33;95012.56;;;17.98;63.73
48774;BME280;34576;0.000;0.000;2023-03-14T03:48:35;94993.44;;;17.96;63.65
48774;BME280;34576;0.000;0.000;2023-03-14T03:55:40;94985.94;;;17.98;63.76
48774;BME280;34576;0.000;0.000;2023-03-14T04:02:41;94974.84;;;17.96;63.51
48774;BME280;34576;0.000;0.000;2023-03-14T04:09:44;94972.16;;;17.96;63.79
48774;BME280;34576;0.000;0.000;2023-03-14T04:16:56;94974.53;;;17.97;64.88
48774;BME280;34576;0.000;0.000;2023-03-14T04:23:56;94953.25;;;17.97;63.61
48774;BME280;34576;0.000;0.000;2023-03-14T04:30:58;94933.38;;;17.94;63.76
48774;BME280;34576;0.000;0.000;2023-03-14T04:38:00;94920.53;;;17.97;65.77
48774;BME280;34576;0.000;0.000;2023-03-14T04:45:00;94911.63;;;17.92;67.36
48774;BME280;34576;0.000;0.000;2023-03-14T04:52:03;94915.09;;;17.93;67.28
48774;BME280;34576;0.000;0.000;2023-03-14T04:59:10;94916.19;;;17.92;67.76
48774;BME280;34576;0.000;0.000;2023-03-14T05:06:16;94900.53;;;17.90;67.70
48774;BME280;34576;0.000;0.000;2023-03-14T05:13:22;94875.00;;;17.89;67.79
48774;BME280;34576;0.000;0.000;2023-03-14T05:20:36;94880.81;;;17.91;68.09
48774;BME280;34576;0.000;0.000;2023-03-14T05:28:08;94874.22;;;17.98;62.97
48774;BME280;34576;0.000;0.000;2023-03-14T05:35:25;94895.97;;;16.02;53.76
48774;BME280;34576;0.000;0.000;2023-03-14T05:42:46;94892.09;;;15.54;50.19
48774;BME280;34576;0.000;0.000;2023-03-14T05:50:09;94892.59;;;15.33;49.19
48774;BME280;34576;0.000;0.000;2023-03-14T05:57:35;94887.50;;;15.68;49.63
48774;BME280;34576;0.000;0.000;2023-03-14T06:04:58;94859.84;;;16.99;50.38
48774;BME280;34576;0.000;0.000;2023-03-14T06:11:59;94857.63;;;17.18;52.66
48774;BME280;34576;0.000;0.000;2023-03-14T06:19:00;94820.41;;;17.27;54.50
48774;BME280;34576;0.000;0.000;2023-03-14T06:26:03;94857.00;;;17.30;57.40
48774;BME280;34576;0.000;0.000;2023-03-14T06:33:03;94839.63;;;17.33;58.14
48774;BME280;34576;0.000;0.000;2023-03-14T06:40:05;94841.69;;;17.36;58.58
48774;BME280;34576;0.000;0.000;2023-03-14T06:47:23;94845.09;;;17.36;59.35
48774;BME280;34576;0.000;0.000;2023-03-14T06:54:24;94822.56;;;17.42;59.63
48774;BME280;34576;0.000;0.000;2023-03-14T07:01:26;94835.69;;;17.48;59.88
48774;BME280;34576;0.000;0.000;2023-03-14T07:08:30;94860.06;;;17.50;60.20
48774;BME280;34576;0.000;0.000;2023-03-14T07:15:31;94856.34;;;17.51;60.36
48774;BME280;34576;0.000;0.000;2023-03-14T07:22:36;94857.09;;;17.51;60.52
48774;BME280;34576;0.000;0.000;2023-03-14T07:29:37;94858.66;;;17.52;60.81
48774;BME280;34576;0.000;0.000;2023-03-14T07:36:38;94869.47;;;17.56;60.50
48774;BME280;34576;0.000;0.000;2023-03-14T07:43:39;94881.50;;;17.53;60.85
48774;BME280;34576;0.000;0.000;2023-03-14T07:50:39;94892.91;;;17.54;60.94
48774;BME280;34576;0.000;0.000;2023-03-14T07:57:39;94894.81;;;17.53;60.81
48774;BME280;34576;0.000;0.000;2023-03-14T08:04:40;94911.53;;;17.54;60.86
48774;BME280;34576;0.000;0.000;2023-03-14T08:11:40;94908.09;;;17.53;60.98
48774;BME280;34576;0.000;0.000;2023-03-14T08:18:40;94927.78;;;17.52;60.79
48774;BME280;34576;0.000;0.000;2023-03-14T08:25:41;94936.84;;;17.51;60.92
48774;BME280;34576;0.000;0.000;2023-03-14T08:32:41;94953.91;;;17.50;60.98
48774;BME280;34576;0.000;0.000;2023-03-14T08:39:42;94941.09;;;17.52;60.96
48774;BME280;34576;0.000;0.000;2023-03-14T08:46:42;94966.41;;;17.50;61.08
48774;BME280;34576;0.000;0.000;2023-03-14T08:53:42;94980.19;;;17.52;60.95
48774;BME280;34576;0.000;0.000;2023-03-14T09:00:43;94979.88;;;17.53;60.86
48774;BME280;34576;0.000;0.000;2023-03-14T09:07:43;94968.91;;;17.55;60.76
48774;BME280;34576;0.000;0.000;2023-03-14T09:14:44;94970.00;;;17.54;60.91
48774;BME280;34576;0.000;0.000;2023-03-14T09:21:44;94970.31;;;17.52;60.96
48774;BME280;34576;0.000;0.000;2023-03-14T09:28:44;94967.34;;;17.54;60.95
48774;BME280;34576;0.000;0.000;2023-03-14T09:35:45;94955.47;;;17.51;60.96
48774;BME280;34576;0.000;0.000;2023-03-14T09:42:48;94963.75;;;17.50;61.00
48774;BME280;34576;0.000;0.000;2023-03-14T09:49:50;94976.59;;;17.48;61.10
48774;BME280;34576;0.000;0.000;2023-03-14T09:56:51;94993.63;;;17.47;60.81
48774;BME280;34576;0.000;0.000;2023-03-14T10:03:53;94996.28;;;17.47;60.98
48774;BME280;34576;0.000;0.000;2023-03-14T10:10:54;95000.50;;;17.48;60.78
48774;BME280;34576;0.000;0.000;2023-03-14T10:17:54;95004.13;;;17.43;60.70
48774;BME280;34576;0.000;0.000;2023-03-14T10:24:56;95010.97;;;17.44;60.89
48774;BME280;34576;0.000;0.000;2023-03-14T10:32:00;95017.41;;;17.43;61.13
48774;BME280;34576;0.000;0.000;2023-03-14T10:39:21;95030.53;;;17.39;60.88
48774;BME280;34576;0.000;0.000;2023-03-14T10:46:23;95048.34;;;17.39;61.07
48774;BME280;34576;0.000;0.000;2023-03-14T10:53:44;95062.25;;;17.36;60.86
48774;BME280;34576;0.000;0.000;2023-03-14T11:00:46;95051.63;;;17.36;60.71
48774;BME280;34576;0.000;0.000;2023-03-14T11:07:49;95062.25;;;17.36;60.95
48774;BME280;34576;0.000;0.000;2023-03-14T11:14:54;95064.44;;;17.34;60.74
48774;BME280;34576;0.000;0.000;2023-03-14T11:22:04;95088.66;;;17.32;60.90
48774;BME280;34576;0.000;0.000;2023-03-14T11:36:10;95133.53;;;17.34;60.92
48774;BME280;34576;0.000;0.000;2023-03-14T11:43:14;95173.69;;;17.23;60.98
48774;BME280;34576;0.000;0.000;2023-03-14T11:50:17;95319.41;;;17.30;60.86
48774;BME280;34576;0.000;0.000;2023-03-14T11:57:19;95376.56;;;17.19;60.99
48774;BME280;34576;0.000;0.000;2023-03-14T12:04:31;95389.34;;;17.17;60.97
48774;BME280;34576;0.000;0.000;2023-03-14T12:18:37;95450.75;;;17.15;60.92
48774;BME280;34576;0.000;0.000;2023-03-14T12:25:38;95468.16;;;17.21;60.84
48774;BME280;34576;0.000;0.000;2023-03-14T12:32:39;95485.28;;;17.29;60.40
48774;BME280;34576;0.000;0.000;2023-03-14T12:46:40;95503.47;;;17.36;60.14
48774;BME280;34576;0.000;0.000;2023-03-14T13:00:40;95502.69;;;17.35;59.87
48774;BME280;34576;0.000;0.000;2023-03-14T13:14:44;95530.84;;;17.22;60.36
48774;BME280;34576;0.000;0.000;2023-03-14T13:21:45;95556.97;;;17.20;60.44
48774;BME280;34576;0.000;0.000;2023-03-14T13:28:46;95541.69;;;17.26;60.35
48774;BME280;34576;0.000;0.000;2023-03-14T13:42:58;95587.19;;;17.24;60.30
48774;BME280;34576;0.000;0.000;2023-03-14T13:49:59;95602.81;;;17.26;60.26
48774;BME280;34576;0.000;0.000;2023-03-14T13:57:03;95609.50;;;17.23;60.20
48774;BME280;34576;0.000;0.000;2023-03-14T14:04:08;95624.94;;;17.21;60.20
48774;BME280;34576;0.000;0.000;2023-03-14T14:11:18;95638.22;;;17.21;60.25
48774;BME280;34576;0.000;0.000;2023-03-14T14:18:21;95639.13;;;17.17;60.46
48774;BME280;34576;0.000;0.000;2023-03-14T14:25:23;95648.75;;;17.13;60.31
48774;BME280;34576;0.000;0.000;2023-03-14T14:32:24;95671.97;;;17.07;60.44
48774;BME280;34576;0.000;0.000;2023-03-14T14:39:26;95666.06;;;17.10;60.31
48774;BME280;34576;0.000;0.000;2023-03-14T14:46:28;95682.44;;;17.17;60.25
48774;BME280;34576;0.000;0.000;2023-03-14T14:53:39;95674.25;;;17.14;60.22
48774;BME280;34576;0.000;0.000;2023-03-14T15:00:40;95676.53;;;17.20;60.12
48774;BME280;34576;0.000;0.000;2023-03-14T15:07:41;95668.19;;;17.13;60.16
48774;BME280;34576;0.000;0.000;2023-03-14T15:14:41;95668.56;;;17.20;59.94
48774;BME280;34576;0.000;0.000;2023-03-14T15:21:42;95652.50;;;17.25;59.50
48774;BME280;34576;0.000;0.000;2023-03-14T15:28:42;95649.97;;;17.20;59.85
48774;BME280;34576;0.000;0.000;2023-03-14T15:35:42;95644.66;;;17.20;59.89
48774;BME280;34576;0.000;0.000;2023-03-14T15:42:43;95632.44;;;17.19;59.85
48774;BME280;34576;0.000;0.000;2023-03-14T15:49:43;95630.00;;;17.23;59.82
48774;BME280;34576;0.000;0.000;2023-03-14T15:56:44;95645.13;;;17.22;60.32
48774;BME280;34576;0.000;0.000;2023-03-14T16:03:44;95650.75;;;17.21;60.45
48774;BME280;34576;0.000;0.000;2023-03-14T16:10:45;95668.56;;;17.20;60.37
48774;BME280;34576;0.000;0.000;2023-03-14T16:17:46;95677.91;;;17.18;60.75
48774;BME280;34576;0.000;0.000;2023-03-14T16:24:46;95685.00;;;17.22;61.30
48774;BME280;34576;0.000;0.000;2023-03-14T16:31:46;95678.59;;;17.23;61.51
48774;BME280;34576;0.000;0.000;2023-03-14T16:38:47;95714.81;;;17.19;61.02
48774;BME280;34576;0.000;0.000;2023-03-14T16:45:49;95743.28;;;17.19;60.95
48774;BME280;34576;0.000;0.000;2023-03-14T16:52:49;95755.88;;;17.13;61.04
48774;BME280;34576;0.000;0.000;2023-03-14T16:59:49;95781.50;;;17.04;61.37
48774;BME280;34576;0.000;0.000;2023-03-14T17:06:50;95804.66;;;17.03;61.44
48774;BME280;34576;0.000;0.000;2023-03-14T17:13:51;95820.59;;;17.03;61.16
48774;BME280;34576;0.000;0.000;2023-03-14T17:20:52;95827.91;;;16.93;61.64
48774;BME280;34576;0.000;0.000;2023-03-14T17:27:52;95839.06;;;16.95;61.54
48774;BME280;34576;0.000;0.000;2023-03-14T17:34:53;95850.75;;;16.94;61.30
48774;BME280;34576;0.000;0.000;2023-03-14T17:41:53;95859.84;;;16.87;61.54
48774;BME280;34576;0.000;0.000;2023-03-14T17:48:53;95868.63;;;16.88;61.24
48774;BME280;34576;0.000;0.000;2023-03-14T17:55:54;95884.28;;;16.89;61.10
48774;BME280;34576;0.000;0.000;2023-03-14T18:02:54;95904.47;;;16.85;61.27
48774;BME280;34576;0.000;0.000;2023-03-14T18:09:54;95914.50;;;16.94;60.81
48774;BME280;34576;0.000;0.000;2023-03-14T18:16:55;95929.88;;;16.97;60.57
48774;BME280;34576;0.000;0.000;2023-03-14T18:23:56;95936.81;;;16.93;60.65
48774;BME280;34576;0.000;0.000;2023-03-14T18:31:10;95935.47;;;16.95;60.53
48774;BME280;34576;0.000;0.000;2023-03-14T18:38:10;95933.88;;;16.94;60.49
48774;BME280;34576;0.000;0.000;2023-03-14T18:45:11;95936.81;;;16.93;60.65
48774;BME280;34576;0.000;0.000;2023-03-14T18:52:11;95951.50;;;16.85;60.87
48774;BME280;34576;0.000;0.000;2023-03-14T18:59:12;95957.06;;;16.88;60.77
48774;BME280;34576;0.000;0.000;2023-03-14T19:06:12;95960.25;;;16.85;60.87
48774;BME280;34576;0.000;0.000;2023-03-14T19:13:13;95960.25;;;16.90;60.48
48774;BME280;34576;0.000;0.000;2023-03-14T19:20:13;95959.78;;;16.83;60.77
48774;BME280;34576;0.000;0.000;2023-03-14T19:27:14;95945.91;;;16.86;60.48
48774;BME280;34576;0.000;0.000;2023-03-14T19:34:14;95958.69;;;16.84;60.46
48774;BME280;34576;0.000;0.000;2023-03-14T19:41:15;95953.66;;;16.83;60.58
48774;BME280;34576;0.000;0.000;2023-03-14T19:48:15;95962.47;;;16.78;60.54
48774;BME280;34576;0.000;0.000;2023-03-14T19:55:15;95958.75;;;16.79;60.67
48774;BME280;34576;0.000;0.000;2023-03-14T20:02:16;95973.88;;;16.79;61.20
48774;BME280;34576;0.000;0.000;2023-03-14T20:09:16;95974.97;;;17.02;61.15
48774;BME280;34576;0.000;0.000;2023-03-14T20:16:16;95972.81;;;17.04;61.18
48774;BME280;34576;0.000;0.000;2023-03-14T20:23:17;95985.66;;;16.97;61.49
48774;BME280;34576;0.000;0.000;2023-03-14T20:30:18;95998.88;;;17.02;60.75
48774;BME280;34576;0.000;0.000;2023-03-14T20:37:20;96016.56;;;16.87;61.86
48774;BME280;34576;0.000;0.000;2023-03-14T20:44:23;96021.50;;;16.99;61.54
48774;BME280;34576;0.000;0.000;2023-03-14T20:51:23;96029.34;;;17.10;61.42
48774;BME280;34576;0.000;0.000;2023-03-14T20:58:24;96027.47;;;17.10;61.60
48774;BME280;34576;0.000;0.000;2023-03-14T21:05:25;96021.09;;;17.11;62.20
48774;BME280;34576;0.000;0.000;2023-03-14T21:12:25;96027.94;;;17.17;62.16
48774;BME280;34576;0.000;0.000;2023-03-14T21:19:26;96040.41;;;17.17;62.23
48774;BME280;34576;0.000;0.000;2023-03-14T21:26:32;96046.00;;;17.15;61.93
48774;BME280;34576;0.000;0.000;2023-03-14T21:33:32;96055.28;;;17.18;61.87
48774;BME280;34576;0.000;0.000;2023-03-14T21:40:34;96103.63;;;17.20;61.83
48774;BME280;34576;0.000;0.000;2023-03-14T21:47:34;96136.31;;;17.20;62.29
48774;BME280;34576;0.000;0.000;2023-03-14T21:54:34;96139.75;;;17.21;62.20
48774;BME280;34576;0.000;0.000;2023-03-14T22:01:35;96140.53;;;17.21;62.31
48774;BME280;34576;0.000;0.000;2023-03-14T22:08:35;96151.19;;;17.21;62.60
48774;BME280;34576;0.000;0.000;2023-03-14T22:15:37;96150.69;;;17.19;62.87
48774;BME280;34576;0.000;0.000;2023-03-14T22:22:37;96160.56;;;17.14;63.79
48774;BME280;34576;0.000;0.000;2023-03-14T22:29:38;96171.25;;;17.08;63.77
48774;BME280;34576;0.000;0.000;2023-03-14T22:36:38;96208.13;;;17.15;63.64
48774;BME280;34576;0.000;0.000;2023-03-14T22:43:39;96225.41;;;17.13;64.20
48774;BME280;34576;0.000;0.000;2023-03-14T22:50:39;96237.94;;;17.12;64.34
48774;BME280;34576;0.000;0.000;2023-03-14T22:57:39;96250.44;;;17.12;64.68
48774;BME280;34576;0.000;0.000;2023-03-14T23:04:40;96269.28;;;17.10;64.84
48774;BME280;34576;0.000;0.000;2023-03-14T23:11:40;96285.75;;;17.12;64.90
48774;BME280;34576;0.000;0.000;2023-03-14T23:18:41;96307.59;;;17.09;64.85
48774;BME280;34576;0.000;0.000;2023-03-14T23:25:41;96313.69;;;17.10;64.75
48774;BME280;34576;0.000;0.000;2023-03-14T23:32:42;96316.63;;;17.08;64.59
48774;BME280;34576;0.000;0.000;2023-03-14T23:39:45;96327.25;;;17.08;64.79
48774;BME280;34576;0.000;0.000;2023-03-14T23:46:46;96334.16;;;17.09;64.69
48774;BME280;34576;0.000;0.000;2023-03-14T23:53:46;96351.16;;;17.08;64.37
